sensor_id;sensor_type;location;lat;lon;timestamp;P1;durP1;ratioP1;P2;durP2;ratioP2
21245;SDS011;10781;50.928;4.440;2024-01-06T00:00:19;5.65;;;3.47;;
21245;SDS011;10781;50.928;4.440;2024-01-06T00:02:46;5.50;;;3.45;;
21245;SDS011;10781;50.928;4.440;2024-01-06T00:05:11;6.68;;;3.60;;
21245;SDS011;10781;50.928;4.440;2024-01-06T00:07:37;7.07;;;4.00;;
21245;SDS011;10781;50.928;4.440;2024-01-06T00:10:03;6.82;;;4.03;;
21245;SDS011;10781;50.928;4.440;2024-01-06T00:12:29;7.40;;;4.53;;
21245;SDS011;10781;50.928;4.440;2024-01-06T00:14:55;10.05;;;4.97;;
21245;SDS011;10781;50.928;4.440;2024-01-06T00:17:20;8.63;;;4.75;;
21245;SDS011;10781;50.928;4.440;2024-01-06T00:19:46;9.18;;;4.85;;
21245;SDS011;10781;50.928;4.440;2024-01-06T00:22:17;10.43;;;4.68;;
21245;SDS011;10781;50.928;4.440;2024-01-06T00:24:46;9.82;;;5.38;;
21245;SDS011;10781;50.928;4.440;2024-01-06T00:27:12;8.88;;;5.20;;
21245;SDS011;10781;50.928;4.440;2024-01-06T00:29:38;8.52;;;5.22;;
21245;SDS011;10781;50.928;4.440;2024-01-06T00:32:04;12.80;;;5.35;;
21245;SDS011;10781;50.928;4.440;2024-01-06T00:34:30;10.52;;;6.30;;
21245;SDS011;10781;50.928;4.440;2024-01-06T00:36:57;8.65;;;5.35;;
21245;SDS011;10781;50.928;4.440;2024-01-06T00:39:23;9.13;;;5.40;;
21245;SDS011;10781;50.928;4.440;2024-01-06T00:41:57;8.07;;;5.55;;
21245;SDS011;10781;50.928;4.440;2024-01-06T00:44:32;9.50;;;5.70;;
21245;SDS011;10781;50.928;4.440;2024-01-06T00:46:59;8.85;;;5.28;;
21245;SDS011;10781;50.928;4.440;2024-01-06T00:49:25;8.13;;;5.28;;
21245;SDS011;10781;50.928;4.440;2024-01-06T00:51:51;7.97;;;4.78;;
21245;SDS011;10781;50.928;4.440;2024-01-06T00:54:17;10.20;;;5.00;;
21245;SDS011;10781;50.928;4.440;2024-01-06T00:56:42;8.05;;;4.55;;
21245;SDS011;10781;50.928;4.440;2024-01-06T00:59:08;7.68;;;4.65;;
21245;SDS011;10781;50.928;4.440;2024-01-06T01:01:34;7.18;;;4.63;;
21245;SDS011;10781;50.928;4.440;2024-01-06T01:04:00;8.88;;;4.82;;
21245;SDS011;10781;50.928;4.440;2024-01-06T01:06:26;7.97;;;4.47;;
21245;SDS011;10781;50.928;4.440;2024-01-06T01:08:52;7.35;;;4.47;;
21245;SDS011;10781;50.928;4.440;2024-01-06T01:11:18;8.60;;;4.45;;
21245;SDS011;10781;50.928;4.440;2024-01-06T01:13:44;7.35;;;4.45;;
21245;SDS011;10781;50.928;4.440;2024-01-06T01:16:10;6.63;;;3.72;;
21245;SDS011;10781;50.928;4.440;2024-01-06T01:18:35;6.28;;;3.90;;
21245;SDS011;10781;50.928;4.440;2024-01-06T01:21:02;8.13;;;4.07;;
21245;SDS011;10781;50.928;4.440;2024-01-06T01:23:28;4.07;;;3.45;;
21245;SDS011;10781;50.928;4.440;2024-01-06T01:25:54;5.40;;;3.65;;
21245;SDS011;10781;50.928;4.440;2024-01-06T01:28:19;5.85;;;3.72;;
21245;SDS011;10781;50.928;4.440;2024-01-06T01:30:52;6.20;;;3.53;;
21245;SDS011;10781;50.928;4.440;2024-01-06T01:33:19;5.90;;;3.10;;
21245;SDS011;10781;50.928;4.440;2024-01-06T01:35:45;5.32;;;3.10;;
21245;SDS011;10781;50.928;4.440;2024-01-06T01:38:11;6.25;;;3.75;;
21245;SDS011;10781;50.928;4.440;2024-01-06T01:40:37;4.45;;;3.40;;
21245;SDS011;10781;50.928;4.440;2024-01-06T01:43:03;4.40;;;3.38;;
21245;SDS011;10781;50.928;4.440;2024-01-06T01:45:29;7.80;;;3.53;;
21245;SDS011;10781;50.928;4.440;2024-01-06T01:47:55;6.70;;;4.05;;
21245;SDS011;10781;50.928;4.440;2024-01-06T01:50:26;5.90;;;3.33;;
21245;SDS011;10781;50.928;4.440;2024-01-06T01:52:52;6.07;;;3.85;;
21245;SDS011;10781;50.928;4.440;2024-01-06T01:55:19;5.40;;;3.35;;
21245;SDS011;10781;50.928;4.440;2024-01-06T01:57:44;6.05;;;3.50;;
21245;SDS011;10781;50.928;4.440;2024-01-06T02:00:11;5.95;;;3.78;;
21245;SDS011;10781;50.928;4.440;2024-01-06T02:02:37;6.57;;;3.53;;
21245;SDS011;10781;50.928;4.440;2024-01-06T02:05:03;6.57;;;4.13;;
21245;SDS011;10781;50.928;4.440;2024-01-06T02:07:28;5.38;;;3.72;;
21245;SDS011;10781;50.928;4.440;2024-01-06T02:09:54;5.15;;;3.85;;
21245;SDS011;10781;50.928;4.440;2024-01-06T02:12:20;8.02;;;4.35;;
21245;SDS011;10781;50.928;4.440;2024-01-06T02:14:45;5.30;;;3.85;;
21245;SDS011;10781;50.928;4.440;2024-01-06T02:17:11;5.07;;;3.50;;
21245;SDS011;10781;50.928;4.440;2024-01-06T02:19:37;6.00;;;3.60;;
21245;SDS011;10781;50.928;4.440;2024-01-06T02:22:03;4.53;;;3.80;;
21245;SDS011;10781;50.928;4.440;2024-01-06T02:24:28;5.43;;;3.53;;
21245;SDS011;10781;50.928;4.440;2024-01-06T02:26:54;3.65;;;3.30;;
21245;SDS011;10781;50.928;4.440;2024-01-06T02:29:20;5.22;;;3.35;;
21245;SDS011;10781;50.928;4.440;2024-01-06T02:31:46;3.50;;;3.20;;
21245;SDS011;10781;50.928;4.440;2024-01-06T02:34:11;4.50;;;3.08;;
21245;SDS011;10781;50.928;4.440;2024-01-06T02:36:37;5.55;;;3.13;;
21245;SDS011;10781;50.928;4.440;2024-01-06T02:39:03;4.80;;;3.38;;
21245;SDS011;10781;50.928;4.440;2024-01-06T02:41:28;4.63;;;3.30;;
21245;SDS011;10781;50.928;4.440;2024-01-06T02:43:54;6.57;;;3.15;;
21245;SDS011;10781;50.928;4.440;2024-01-06T02:46:21;4.60;;;3.35;;
21245;SDS011;10781;50.928;4.440;2024-01-06T02:48:47;4.22;;;3.30;;
21245;SDS011;10781;50.928;4.440;2024-01-06T02:51:12;5.75;;;3.70;;
21245;SDS011;10781;50.928;4.440;2024-01-06T02:53:39;4.35;;;3.40;;
21245;SDS011;10781;50.928;4.440;2024-01-06T02:56:09;5.78;;;3.58;;
21245;SDS011;10781;50.928;4.440;2024-01-06T02:58:36;5.95;;;3.60;;
21245;SDS011;10781;50.928;4.440;2024-01-06T03:01:02;4.80;;;3.50;;
21245;SDS011;10781;50.928;4.440;2024-01-06T03:03:27;6.05;;;3.85;;
21245;SDS011;10781;50.928;4.440;2024-01-06T03:05:53;6.15;;;3.42;;
21245;SDS011;10781;50.928;4.440;2024-01-06T03:08:19;7.35;;;4.28;;
21245;SDS011;10781;50.928;4.440;2024-01-06T03:10:44;7.25;;;4.18;;
21245;SDS011;10781;50.928;4.440;2024-01-06T03:13:10;5.70;;;4.22;;
21245;SDS011;10781;50.928;4.440;2024-01-06T03:15:36;8.02;;;5.00;;
21245;SDS011;10781;50.928;4.440;2024-01-06T03:18:01;8.30;;;5.40;;
21245;SDS011;10781;50.928;4.440;2024-01-06T03:20:27;11.40;;;8.00;;
21245;SDS011;10781;50.928;4.440;2024-01-06T03:22:53;16.13;;;10.57;;
21245;SDS011;10781;50.928;4.440;2024-01-06T03:25:18;22.48;;;14.60;;
21245;SDS011;10781;50.928;4.440;2024-01-06T03:27:44;20.55;;;11.30;;
21245;SDS011;10781;50.928;4.440;2024-01-06T03:30:10;16.40;;;10.57;;
21245;SDS011;10781;50.928;4.440;2024-01-06T03:32:36;12.10;;;7.90;;
21245;SDS011;10781;50.928;4.440;2024-01-06T03:35:02;11.70;;;7.20;;
21245;SDS011;10781;50.928;4.440;2024-01-06T03:37:27;15.07;;;6.70;;
21245;SDS011;10781;50.928;4.440;2024-01-06T03:39:53;14.73;;;7.43;;
21245;SDS011;10781;50.928;4.440;2024-01-06T03:42:19;10.00;;;6.53;;
21245;SDS011;10781;50.928;4.440;2024-01-06T03:44:44;11.65;;;6.45;;
21245;SDS011;10781;50.928;4.440;2024-01-06T03:47:10;12.45;;;6.35;;
21245;SDS011;10781;50.928;4.440;2024-01-06T03:49:35;9.52;;;6.75;;
21245;SDS011;10781;50.928;4.440;2024-01-06T03:52:01;11.27;;;7.10;;
21245;SDS011;10781;50.928;4.440;2024-01-06T03:54:27;10.05;;;6.68;;
21245;SDS011;10781;50.928;4.440;2024-01-06T03:56:53;12.70;;;7.07;;
21245;SDS011;10781;50.928;4.440;2024-01-06T03:59:19;12.93;;;8.10;;
21245;SDS011;10781;50.928;4.440;2024-01-06T04:01:44;11.93;;;7.75;;
21245;SDS011;10781;50.928;4.440;2024-01-06T04:04:10;16.02;;;8.43;;
21245;SDS011;10781;50.928;4.440;2024-01-06T04:06:35;15.38;;;7.60;;
21245;SDS011;10781;50.928;4.440;2024-01-06T04:09:01;14.88;;;7.82;;
21245;SDS011;10781;50.928;4.440;2024-01-06T04:11:27;13.90;;;8.15;;
21245;SDS011;10781;50.928;4.440;2024-01-06T04:13:52;14.65;;;8.38;;
21245;SDS011;10781;50.928;4.440;2024-01-06T04:16:19;14.93;;;8.40;;
21245;SDS011;10781;50.928;4.440;2024-01-06T04:18:45;13.48;;;8.32;;
21245;SDS011;10781;50.928;4.440;2024-01-06T04:21:10;14.43;;;8.02;;
21245;SDS011;10781;50.928;4.440;2024-01-06T04:23:36;11.88;;;7.22;;
21245;SDS011;10781;50.928;4.440;2024-01-06T04:26:02;14.35;;;7.63;;
21245;SDS011;10781;50.928;4.440;2024-01-06T04:28:29;13.20;;;7.82;;
21245;SDS011;10781;50.928;4.440;2024-01-06T04:30:55;12.80;;;7.82;;
21245;SDS011;10781;50.928;4.440;2024-01-06T04:33:21;13.85;;;8.00;;
21245;SDS011;10781;50.928;4.440;2024-01-06T04:35:46;12.88;;;7.50;;
21245;SDS011;10781;50.928;4.440;2024-01-06T04:38:12;14.30;;;7.80;;
21245;SDS011;10781;50.928;4.440;2024-01-06T04:40:38;14.90;;;8.18;;
21245;SDS011;10781;50.928;4.440;2024-01-06T04:43:03;15.23;;;7.82;;
21245;SDS011;10781;50.928;4.440;2024-01-06T04:45:29;14.82;;;8.07;;
21245;SDS011;10781;50.928;4.440;2024-01-06T04:47:54;12.75;;;7.93;;
21245;SDS011;10781;50.928;4.440;2024-01-06T04:50:20;15.23;;;7.95;;
21245;SDS011;10781;50.928;4.440;2024-01-06T04:52:46;15.13;;;8.40;;
21245;SDS011;10781;50.928;4.440;2024-01-06T04:55:11;15.38;;;8.43;;
21245;SDS011;10781;50.928;4.440;2024-01-06T04:57:37;17.95;;;8.98;;
21245;SDS011;10781;50.928;4.440;2024-01-06T05:00:03;15.52;;;8.68;;
21245;SDS011;10781;50.928;4.440;2024-01-06T05:02:29;17.70;;;9.68;;
21245;SDS011;10781;50.928;4.440;2024-01-06T05:04:55;17.38;;;8.93;;
21245;SDS011;10781;50.928;4.440;2024-01-06T05:07:20;17.02;;;9.50;;
21245;SDS011;10781;50.928;4.440;2024-01-06T05:09:46;16.27;;;9.45;;
21245;SDS011;10781;50.928;4.440;2024-01-06T05:12:12;18.42;;;8.63;;
21245;SDS011;10781;50.928;4.440;2024-01-06T05:14:38;16.40;;;9.25;;
21245;SDS011;10781;50.928;4.440;2024-01-06T05:17:03;15.10;;;8.77;;
21245;SDS011;10781;50.928;4.440;2024-01-06T05:19:29;14.68;;;7.57;;
21245;SDS011;10781;50.928;4.440;2024-01-06T05:21:56;11.05;;;6.55;;
21245;SDS011;10781;50.928;4.440;2024-01-06T05:24:22;14.63;;;6.90;;
21245;SDS011;10781;50.928;4.440;2024-01-06T05:26:48;12.63;;;5.68;;
21245;SDS011;10781;50.928;4.440;2024-01-06T05:29:14;10.50;;;5.68;;
21245;SDS011;10781;50.928;4.440;2024-01-06T05:31:40;9.93;;;5.65;;
21245;SDS011;10781;50.928;4.440;2024-01-06T05:34:05;7.88;;;5.00;;
21245;SDS011;10781;50.928;4.440;2024-01-06T05:36:31;10.55;;;5.10;;
21245;SDS011;10781;50.928;4.440;2024-01-06T05:38:57;8.77;;;5.25;;
21245;SDS011;10781;50.928;4.440;2024-01-06T05:41:24;9.30;;;5.18;;
21245;SDS011;10781;50.928;4.440;2024-01-06T05:43:49;10.25;;;5.60;;
21245;SDS011;10781;50.928;4.440;2024-01-06T05:46:24;11.35;;;4.72;;
21245;SDS011;10781;50.928;4.440;2024-01-06T05:48:50;7.85;;;5.20;;
21245;SDS011;10781;50.928;4.440;2024-01-06T05:51:16;7.75;;;4.78;;
21245;SDS011;10781;50.928;4.440;2024-01-06T05:53:41;8.50;;;4.93;;
21245;SDS011;10781;50.928;4.440;2024-01-06T05:56:07;9.13;;;4.70;;
21245;SDS011;10781;50.928;4.440;2024-01-06T05:58:34;6.15;;;4.55;;
21245;SDS011;10781;50.928;4.440;2024-01-06T06:01:00;7.07;;;5.28;;
21245;SDS011;10781;50.928;4.440;2024-01-06T06:03:25;6.63;;;3.78;;
21245;SDS011;10781;50.928;4.440;2024-01-06T06:05:51;7.68;;;4.40;;
21245;SDS011;10781;50.928;4.440;2024-01-06T06:08:17;5.97;;;4.22;;
21245;SDS011;10781;50.928;4.440;2024-01-06T06:10:43;6.68;;;3.88;;
21245;SDS011;10781;50.928;4.440;2024-01-06T06:13:26;6.22;;;4.07;;
21245;SDS011;10781;50.928;4.440;2024-01-06T06:15:52;6.72;;;3.90;;
21245;SDS011;10781;50.928;4.440;2024-01-06T06:18:17;6.15;;;3.78;;
21245;SDS011;10781;50.928;4.440;2024-01-06T06:20:43;7.75;;;4.38;;
21245;SDS011;10781;50.928;4.440;2024-01-06T06:23:09;6.45;;;4.22;;
21245;SDS011;10781;50.928;4.440;2024-01-06T06:25:37;9.82;;;5.07;;
21245;SDS011;10781;50.928;4.440;2024-01-06T06:28:03;9.80;;;4.85;;
21245;SDS011;10781;50.928;4.440;2024-01-06T06:30:29;7.78;;;4.95;;
21245;SDS011;10781;50.928;4.440;2024-01-06T06:32:55;8.98;;;4.50;;
21245;SDS011;10781;50.928;4.440;2024-01-06T06:35:21;7.90;;;4.90;;
21245;SDS011;10781;50.928;4.440;2024-01-06T06:37:48;8.05;;;4.90;;
21245;SDS011;10781;50.928;4.440;2024-01-06T06:40:14;6.78;;;4.70;;
21245;SDS011;10781;50.928;4.440;2024-01-06T06:42:39;7.78;;;5.00;;
21245;SDS011;10781;50.928;4.440;2024-01-06T06:45:05;11.27;;;5.72;;
21245;SDS011;10781;50.928;4.440;2024-01-06T06:47:31;9.40;;;5.47;;
21245;SDS011;10781;50.928;4.440;2024-01-06T06:49:57;8.18;;;5.40;;
21245;SDS011;10781;50.928;4.440;2024-01-06T06:52:22;8.25;;;5.45;;
21245;SDS011;10781;50.928;4.440;2024-01-06T06:54:48;9.57;;;5.88;;
21245;SDS011;10781;50.928;4.440;2024-01-06T06:57:14;10.18;;;6.07;;
21245;SDS011;10781;50.928;4.440;2024-01-06T06:59:40;8.45;;;5.93;;
21245;SDS011;10781;50.928;4.440;2024-01-06T07:02:06;9.18;;;6.03;;
21245;SDS011;10781;50.928;4.440;2024-01-06T07:04:32;8.43;;;5.85;;
21245;SDS011;10781;50.928;4.440;2024-01-06T07:06:57;9.27;;;6.00;;
21245;SDS011;10781;50.928;4.440;2024-01-06T07:09:23;9.68;;;6.45;;
21245;SDS011;10781;50.928;4.440;2024-01-06T07:11:49;10.27;;;6.13;;
21245;SDS011;10781;50.928;4.440;2024-01-06T07:14:15;10.80;;;6.10;;
21245;SDS011;10781;50.928;4.440;2024-01-06T07:16:41;11.02;;;6.22;;
21245;SDS011;10781;50.928;4.440;2024-01-06T07:19:07;10.10;;;6.13;;
21245;SDS011;10781;50.928;4.440;2024-01-06T07:21:32;11.15;;;6.65;;
21245;SDS011;10781;50.928;4.440;2024-01-06T07:23:58;10.35;;;6.18;;
21245;SDS011;10781;50.928;4.440;2024-01-06T07:26:26;8.68;;;6.00;;
21245;SDS011;10781;50.928;4.440;2024-01-06T07:28:52;8.95;;;6.25;;
21245;SDS011;10781;50.928;4.440;2024-01-06T07:31:17;11.30;;;5.35;;
21245;SDS011;10781;50.928;4.440;2024-01-06T07:33:43;9.85;;;6.53;;
21245;SDS011;10781;50.928;4.440;2024-01-06T07:36:08;10.43;;;6.43;;
21245;SDS011;10781;50.928;4.440;2024-01-06T07:38:34;10.02;;;6.40;;
21245;SDS011;10781;50.928;4.440;2024-01-06T07:41:00;11.75;;;7.00;;
21245;SDS011;10781;50.928;4.440;2024-01-06T07:43:25;10.68;;;7.05;;
21245;SDS011;10781;50.928;4.440;2024-01-06T07:45:51;9.93;;;6.55;;
21245;SDS011;10781;50.928;4.440;2024-01-06T07:48:16;11.18;;;6.50;;
21245;SDS011;10781;50.928;4.440;2024-01-06T07:50:42;8.88;;;5.20;;
21245;SDS011;10781;50.928;4.440;2024-01-06T07:53:08;9.75;;;5.47;;
21245;SDS011;10781;50.928;4.440;2024-01-06T07:55:34;8.40;;;5.63;;
21245;SDS011;10781;50.928;4.440;2024-01-06T07:57:59;8.65;;;5.47;;
21245;SDS011;10781;50.928;4.440;2024-01-06T08:00:25;9.82;;;5.60;;
21245;SDS011;10781;50.928;4.440;2024-01-06T08:02:50;9.23;;;5.25;;
21245;SDS011;10781;50.928;4.440;2024-01-06T08:05:16;8.35;;;5.78;;
21245;SDS011;10781;50.928;4.440;2024-01-06T08:07:41;8.63;;;5.30;;
21245;SDS011;10781;50.928;4.440;2024-01-06T08:10:07;10.73;;;6.05;;
21245;SDS011;10781;50.928;4.440;2024-01-06T08:12:34;7.55;;;5.03;;
21245;SDS011;10781;50.928;4.440;2024-01-06T08:14:59;9.23;;;5.57;;
21245;SDS011;10781;50.928;4.440;2024-01-06T08:17:25;10.20;;;5.63;;
21245;SDS011;10781;50.928;4.440;2024-01-06T08:19:50;11.23;;;6.25;;
21245;SDS011;10781;50.928;4.440;2024-01-06T08:22:16;7.70;;;5.28;;
21245;SDS011;10781;50.928;4.440;2024-01-06T08:24:42;10.57;;;6.28;;
21245;SDS011;10781;50.928;4.440;2024-01-06T08:27:07;10.63;;;6.25;;
21245;SDS011;10781;50.928;4.440;2024-01-06T08:29:33;10.70;;;6.03;;
21245;SDS011;10781;50.928;4.440;2024-01-06T08:32:00;9.18;;;5.93;;
21245;SDS011;10781;50.928;4.440;2024-01-06T08:34:26;10.25;;;6.60;;
21245;SDS011;10781;50.928;4.440;2024-01-06T08:36:52;9.45;;;5.95;;
21245;SDS011;10781;50.928;4.440;2024-01-06T08:39:18;10.80;;;6.05;;
21245;SDS011;10781;50.928;4.440;2024-01-06T08:41:43;10.75;;;6.38;;
21245;SDS011;10781;50.928;4.440;2024-01-06T08:44:09;10.07;;;6.15;;
21245;SDS011;10781;50.928;4.440;2024-01-06T08:46:34;10.32;;;6.13;;
21245;SDS011;10781;50.928;4.440;2024-01-06T08:49:00;9.10;;;5.65;;
21245;SDS011;10781;50.928;4.440;2024-01-06T08:51:26;9.27;;;6.00;;
21245;SDS011;10781;50.928;4.440;2024-01-06T08:53:52;9.73;;;5.45;;
21245;SDS011;10781;50.928;4.440;2024-01-06T08:56:18;9.68;;;6.22;;
21245;SDS011;10781;50.928;4.440;2024-01-06T08:58:44;10.77;;;6.22;;
21245;SDS011;10781;50.928;4.440;2024-01-06T09:01:09;9.30;;;6.03;;
21245;SDS011;10781;50.928;4.440;2024-01-06T09:03:36;11.98;;;6.00;;
21245;SDS011;10781;50.928;4.440;2024-01-06T09:06:01;8.32;;;5.60;;
21245;SDS011;10781;50.928;4.440;2024-01-06T09:08:28;11.70;;;5.30;;
21245;SDS011;10781;50.928;4.440;2024-01-06T09:10:53;7.60;;;4.85;;
21245;SDS011;10781;50.928;4.440;2024-01-06T09:13:23;8.95;;;5.47;;
21245;SDS011;10781;50.928;4.440;2024-01-06T09:15:53;10.45;;;5.00;;
21245;SDS011;10781;50.928;4.440;2024-01-06T09:18:18;6.85;;;4.50;;
21245;SDS011;10781;50.928;4.440;2024-01-06T09:20:44;8.20;;;4.45;;
21245;SDS011;10781;50.928;4.440;2024-01-06T09:23:12;5.85;;;4.38;;
21245;SDS011;10781;50.928;4.440;2024-01-06T09:25:38;5.82;;;3.70;;
21245;SDS011;10781;50.928;4.440;2024-01-06T09:28:05;4.90;;;3.40;;
21245;SDS011;10781;50.928;4.440;2024-01-06T09:30:31;6.72;;;3.90;;
21245;SDS011;10781;50.928;4.440;2024-01-06T09:32:56;6.95;;;4.47;;
21245;SDS011;10781;50.928;4.440;2024-01-06T09:35:23;6.22;;;4.05;;
21245;SDS011;10781;50.928;4.440;2024-01-06T09:37:48;8.02;;;4.00;;
21245;SDS011;10781;50.928;4.440;2024-01-06T09:40:14;5.85;;;4.22;;
21245;SDS011;10781;50.928;4.440;2024-01-06T09:42:48;6.07;;;4.35;;
21245;SDS011;10781;50.928;4.440;2024-01-06T09:45:18;7.13;;;4.22;;
21245;SDS011;10781;50.928;4.440;2024-01-06T09:47:48;8.90;;;4.38;;
21245;SDS011;10781;50.928;4.440;2024-01-06T09:50:14;7.80;;;5.53;;
21245;SDS011;10781;50.928;4.440;2024-01-06T09:52:45;7.47;;;4.38;;
21245;SDS011;10781;50.928;4.440;2024-01-06T09:55:17;6.45;;;4.15;;
21245;SDS011;10781;50.928;4.440;2024-01-06T09:57:49;5.93;;;4.00;;
21245;SDS011;10781;50.928;4.440;2024-01-06T10:00:14;5.78;;;4.28;;
21245;SDS011;10781;50.928;4.440;2024-01-06T10:02:42;8.30;;;4.57;;
21245;SDS011;10781;50.928;4.440;2024-01-06T10:05:08;5.43;;;3.88;;
21245;SDS011;10781;50.928;4.440;2024-01-06T10:07:37;6.10;;;3.58;;
21245;SDS011;10781;50.928;4.440;2024-01-06T10:10:02;6.88;;;3.80;;
21245;SDS011;10781;50.928;4.440;2024-01-06T10:12:28;5.95;;;3.65;;
21245;SDS011;10781;50.928;4.440;2024-01-06T10:14:54;6.22;;;4.25;;
21245;SDS011;10781;50.928;4.440;2024-01-06T10:17:20;8.63;;;3.80;;
21245;SDS011;10781;50.928;4.440;2024-01-06T10:19:46;6.40;;;3.88;;
21245;SDS011;10781;50.928;4.440;2024-01-06T10:22:15;7.93;;;4.35;;
21245;SDS011;10781;50.928;4.440;2024-01-06T10:24:41;5.38;;;3.95;;
21245;SDS011;10781;50.928;4.440;2024-01-06T10:27:07;6.95;;;4.32;;
21245;SDS011;10781;50.928;4.440;2024-01-06T10:29:34;4.50;;;3.35;;
21245;SDS011;10781;50.928;4.440;2024-01-06T10:31:59;10.95;;;7.18;;
21245;SDS011;10781;50.928;4.440;2024-01-06T10:34:25;8.73;;;4.88;;
21245;SDS011;10781;50.928;4.440;2024-01-06T10:36:52;18.92;;;13.73;;
21245;SDS011;10781;50.928;4.440;2024-01-06T10:39:18;35.03;;;18.50;;
21245;SDS011;10781;50.928;4.440;2024-01-06T10:41:45;10.25;;;6.05;;
21245;SDS011;10781;50.928;4.440;2024-01-06T10:44:12;8.15;;;4.78;;
21245;SDS011;10781;50.928;4.440;2024-01-06T10:46:39;5.50;;;3.70;;
21245;SDS011;10781;50.928;4.440;2024-01-06T10:49:06;5.35;;;3.70;;
21245;SDS011;10781;50.928;4.440;2024-01-06T10:51:38;5.63;;;3.22;;
21245;SDS011;10781;50.928;4.440;2024-01-06T10:54:12;5.57;;;3.28;;
21245;SDS011;10781;50.928;4.440;2024-01-06T10:56:41;7.60;;;3.75;;
21245;SDS011;10781;50.928;4.440;2024-01-06T10:59:09;18.50;;;12.07;;
21245;SDS011;10781;50.928;4.440;2024-01-06T11:01:37;19.95;;;14.23;;
21245;SDS011;10781;50.928;4.440;2024-01-06T11:04:04;4.65;;;3.20;;
21245;SDS011;10781;50.928;4.440;2024-01-06T11:06:31;4.60;;;3.30;;
21245;SDS011;10781;50.928;4.440;2024-01-06T11:09:07;5.40;;;3.67;;
21245;SDS011;10781;50.928;4.440;2024-01-06T11:11:39;6.32;;;3.50;;
21245;SDS011;10781;50.928;4.440;2024-01-06T11:14:24;6.68;;;3.88;;
21245;SDS011;10781;50.928;4.440;2024-01-06T11:16:51;5.22;;;4.03;;
21245;SDS011;10781;50.928;4.440;2024-01-06T11:22:27;5.35;;;4.05;;
21245;SDS011;10781;50.928;4.440;2024-01-06T11:24:57;6.78;;;4.10;;
21245;SDS011;10781;50.928;4.440;2024-01-06T11:27:30;5.88;;;3.97;;
21245;SDS011;10781;50.928;4.440;2024-01-06T11:29:57;5.78;;;4.38;;
21245;SDS011;10781;50.928;4.440;2024-01-06T11:32:31;6.68;;;4.72;;
21245;SDS011;10781;50.928;4.440;2024-01-06T11:35:07;8.20;;;4.65;;
21245;SDS011;10781;50.928;4.440;2024-01-06T11:43:01;9.20;;;5.85;;
21245;SDS011;10781;50.928;4.440;2024-01-06T11:45:28;7.95;;;5.00;;
21245;SDS011;10781;50.928;4.440;2024-01-06T11:47:56;6.57;;;4.57;;
21245;SDS011;10781;50.928;4.440;2024-01-06T11:50:27;8.27;;;4.70;;
21245;SDS011;10781;50.928;4.440;2024-01-06T11:52:54;6.63;;;4.57;;
21245;SDS011;10781;50.928;4.440;2024-01-06T11:55:21;7.80;;;5.40;;
21245;SDS011;10781;50.928;4.440;2024-01-06T11:57:46;6.07;;;5.00;;
21245;SDS011;10781;50.928;4.440;2024-01-06T12:00:16;6.80;;;4.10;;
21245;SDS011;10781;50.928;4.440;2024-01-06T12:02:42;8.52;;;4.80;;
21245;SDS011;10781;50.928;4.440;2024-01-06T12:05:14;8.60;;;4.63;;
21245;SDS011;10781;50.928;4.440;2024-01-06T12:07:43;6.30;;;4.25;;
21245;SDS011;10781;50.928;4.440;2024-01-06T12:10:19;6.53;;;4.18;;
21245;SDS011;10781;50.928;4.440;2024-01-06T12:12:59;4.63;;;3.53;;
21245;SDS011;10781;50.928;4.440;2024-01-06T12:15:26;7.82;;;4.00;;
21245;SDS011;10781;50.928;4.440;2024-01-06T12:17:56;6.13;;;4.40;;
21245;SDS011;10781;50.928;4.440;2024-01-06T12:20:23;6.95;;;4.78;;
21245;SDS011;10781;50.928;4.440;2024-01-06T12:22:52;6.82;;;4.18;;
21245;SDS011;10781;50.928;4.440;2024-01-06T12:25:22;5.60;;;4.13;;
21245;SDS011;10781;50.928;4.440;2024-01-06T12:27:48;6.45;;;4.40;;
21245;SDS011;10781;50.928;4.440;2024-01-06T12:30:14;5.97;;;4.13;;
21245;SDS011;10781;50.928;4.440;2024-01-06T12:32:47;7.97;;;4.50;;
21245;SDS011;10781;50.928;4.440;2024-01-06T12:35:14;7.05;;;4.22;;
21245;SDS011;10781;50.928;4.440;2024-01-06T12:37:43;6.22;;;4.40;;
21245;SDS011;10781;50.928;4.440;2024-01-06T12:40:12;7.72;;;4.85;;
21245;SDS011;10781;50.928;4.440;2024-01-06T12:42:41;6.68;;;4.53;;
21245;SDS011;10781;50.928;4.440;2024-01-06T12:45:07;7.20;;;4.60;;
21245;SDS011;10781;50.928;4.440;2024-01-06T12:47:34;5.45;;;4.03;;
21245;SDS011;10781;50.928;4.440;2024-01-06T12:50:00;6.88;;;4.53;;
21245;SDS011;10781;50.928;4.440;2024-01-06T12:52:26;7.30;;;4.30;;
21245;SDS011;10781;50.928;4.440;2024-01-06T12:54:51;5.70;;;3.65;;
21245;SDS011;10781;50.928;4.440;2024-01-06T12:57:17;5.28;;;3.63;;
21245;SDS011;10781;50.928;4.440;2024-01-06T12:59:43;10.30;;;4.05;;
21245;SDS011;10781;50.928;4.440;2024-01-06T13:02:09;6.25;;;4.18;;
21245;SDS011;10781;50.928;4.440;2024-01-06T13:04:34;7.18;;;4.63;;
21245;SDS011;10781;50.928;4.440;2024-01-06T13:07:01;5.88;;;4.03;;
21245;SDS011;10781;50.928;4.440;2024-01-06T13:09:27;6.68;;;3.95;;
21245;SDS011;10781;50.928;4.440;2024-01-06T13:11:54;6.35;;;4.00;;
21245;SDS011;10781;50.928;4.440;2024-01-06T13:14:25;5.75;;;4.00;;
21245;SDS011;10781;50.928;4.440;2024-01-06T13:16:54;5.45;;;3.75;;
21245;SDS011;10781;50.928;4.440;2024-01-06T13:19:20;5.45;;;3.92;;
21245;SDS011;10781;50.928;4.440;2024-01-06T13:21:46;5.50;;;3.90;;
21245;SDS011;10781;50.928;4.440;2024-01-06T13:24:12;8.27;;;5.45;;
21245;SDS011;10781;50.928;4.440;2024-01-06T13:26:38;12.13;;;7.40;;
21245;SDS011;10781;50.928;4.440;2024-01-06T13:29:03;7.65;;;4.43;;
21245;SDS011;10781;50.928;4.440;2024-01-06T13:31:30;25.23;;;12.95;;
21245;SDS011;10781;50.928;4.440;2024-01-06T13:33:56;11.18;;;7.32;;
21245;SDS011;10781;50.928;4.440;2024-01-06T13:36:22;20.88;;;11.93;;
21245;SDS011;10781;50.928;4.440;2024-01-06T13:38:47;31.73;;;18.25;;
21245;SDS011;10781;50.928;4.440;2024-01-06T13:41:13;22.00;;;11.77;;
21245;SDS011;10781;50.928;4.440;2024-01-06T13:43:39;19.42;;;10.43;;
21245;SDS011;10781;50.928;4.440;2024-01-06T13:46:05;9.10;;;5.38;;
21245;SDS011;10781;50.928;4.440;2024-01-06T13:48:31;8.77;;;5.43;;
21245;SDS011;10781;50.928;4.440;2024-01-06T13:50:57;11.50;;;5.40;;
21245;SDS011;10781;50.928;4.440;2024-01-06T13:53:23;7.10;;;4.80;;
21245;SDS011;10781;50.928;4.440;2024-01-06T13:55:49;6.57;;;3.92;;
21245;SDS011;10781;50.928;4.440;2024-01-06T13:58:15;6.05;;;4.38;;
21245;SDS011;10781;50.928;4.440;2024-01-06T14:00:42;5.78;;;4.20;;
21245;SDS011;10781;50.928;4.440;2024-01-06T14:03:08;5.95;;;4.32;;
21245;SDS011;10781;50.928;4.440;2024-01-06T14:05:33;6.57;;;4.32;;
21245;SDS011;10781;50.928;4.440;2024-01-06T14:08:00;9.35;;;5.80;;
21245;SDS011;10781;50.928;4.440;2024-01-06T14:10:25;7.65;;;4.47;;
21245;SDS011;10781;50.928;4.440;2024-01-06T14:12:52;6.38;;;4.18;;
21245;SDS011;10781;50.928;4.440;2024-01-06T14:15:19;8.32;;;4.88;;
21245;SDS011;10781;50.928;4.440;2024-01-06T14:17:44;6.88;;;4.97;;
21245;SDS011;10781;50.928;4.440;2024-01-06T14:20:15;8.98;;;6.13;;
21245;SDS011;10781;50.928;4.440;2024-01-06T14:22:45;6.85;;;4.57;;
21245;SDS011;10781;50.928;4.440;2024-01-06T14:25:14;4.93;;;3.58;;
21245;SDS011;10781;50.928;4.440;2024-01-06T14:27:42;7.00;;;4.50;;
21245;SDS011;10781;50.928;4.440;2024-01-06T14:30:08;5.72;;;4.13;;
21245;SDS011;10781;50.928;4.440;2024-01-06T14:32:35;5.63;;;3.70;;
21245;SDS011;10781;50.928;4.440;2024-01-06T14:35:02;5.50;;;3.83;;
21245;SDS011;10781;50.928;4.440;2024-01-06T14:37:36;5.15;;;3.47;;
21245;SDS011;10781;50.928;4.440;2024-01-06T14:40:03;6.50;;;4.15;;
21245;SDS011;10781;50.928;4.440;2024-01-06T14:42:30;6.95;;;3.83;;
21245;SDS011;10781;50.928;4.440;2024-01-06T14:44:57;4.60;;;3.78;;
21245;SDS011;10781;50.928;4.440;2024-01-06T14:47:24;5.03;;;3.67;;